createdAt,value
2019-06-26T00:00:48.578Z,71.30
2019-06-26T00:03:17.891Z,71.30
2019-06-26T00:05:47.213Z,71.20
2019-06-26T00:08:16.464Z,71.00
2019-06-26T00:10:46.659Z,71.20
2019-06-26T00:13:25.633Z,71.20
2019-06-26T00:15:46.851Z,71.60
2019-06-26T00:18:16.090Z,71.70
2019-06-26T00:20:45.317Z,71.90
2019-06-26T00:23:14.556Z,71.80
2019-06-26T00:25:43.804Z,72.00
2019-06-26T00:28:13.522Z,71.90
2019-06-26T00:30:42.835Z,72.20
2019-06-26T00:33:12.085Z,73.60
2019-06-26T00:35:42.398Z,73.40
2019-06-26T00:38:11.645Z,72.60
2019-06-26T00:40:40.893Z,72.10
2019-06-26T00:43:10.137Z,71.30
2019-06-26T00:45:39.437Z,71.50
2019-06-26T00:48:08.710Z,72.00
2019-06-26T00:50:37.944Z,72.60
2019-06-26T00:53:07.179Z,72.60
2019-06-26T00:55:36.433Z,73.10
2019-06-26T00:58:05.662Z,72.70
2019-06-26T01:00:36.532Z,72.70
2019-06-26T01:03:05.836Z,72.80
2019-06-26T01:05:35.239Z,72.60
2019-06-26T01:08:04.555Z,72.70
2019-06-26T01:10:33.847Z,73.20
2019-06-26T01:13:03.096Z,73.00
2019-06-26T01:15:32.418Z,73.80
2019-06-26T01:18:01.664Z,73.80
2019-06-26T01:20:30.982Z,73.40
2019-06-26T01:23:00.224Z,73.50
2019-06-26T01:25:29.459Z,73.60
2019-06-26T01:27:58.746Z,74.20
2019-06-26T01:30:27.973Z,74.00
2019-06-26T01:32:57.221Z,74.10
2019-06-26T01:35:26.487Z,74.50
2019-06-26T01:37:55.727Z,75.20
2019-06-26T01:40:25.893Z,74.70
2019-06-26T01:42:55.147Z,75.00
2019-06-26T01:45:24.383Z,75.10
2019-06-26T01:47:53.634Z,75.50
2019-06-26T01:50:22.869Z,75.70
2019-06-26T01:52:52.117Z,75.70
2019-06-26T01:55:21.348Z,75.70
2019-06-26T01:57:50.578Z,75.80
2019-06-26T02:00:19.817Z,75.80
2019-06-26T02:02:49.046Z,75.90
2019-06-26T02:05:18.553Z,75.60
2019-06-26T02:07:47.798Z,76.30
2019-06-26T02:10:17.040Z,76.40
2019-06-26T02:12:46.281Z,75.80
2019-06-26T02:15:15.512Z,76.00
2019-06-26T02:17:44.768Z,76.00
2019-06-26T02:20:14.039Z,76.60
2019-06-26T02:22:43.343Z,77.30
2019-06-26T02:25:12.967Z,77.30
2019-06-26T02:27:42.254Z,78.10
2019-06-26T02:30:11.563Z,77.00
2019-06-26T02:32:40.839Z,76.80
2019-06-26T02:35:10.858Z,77.10
2019-06-26T02:37:40.256Z,77.20
2019-06-26T02:40:09.549Z,77.00
2019-06-26T02:42:38.787Z,76.80
2019-06-26T02:45:08.025Z,76.80
2019-06-26T02:47:37.266Z,77.20
2019-06-26T02:50:06.518Z,77.10
2019-06-26T02:52:35.757Z,77.10
2019-06-26T02:55:05.518Z,77.20
2019-06-26T02:57:35.825Z,77.10
2019-06-26T03:00:05.341Z,77.10
2019-06-26T03:02:34.698Z,77.90
2019-06-26T03:05:05.014Z,77.30
2019-06-26T03:07:34.283Z,77.70
2019-06-26T03:10:04.855Z,77.40
2019-06-26T03:12:34.284Z,77.30
2019-06-26T03:15:09.190Z,77.00
2019-06-26T03:17:37.215Z,77.40
2019-06-26T03:20:06.516Z,77.20
2019-06-26T03:22:36.029Z,77.80
2019-06-26T03:25:05.657Z,77.70
2019-06-26T03:27:34.965Z,78.20
2019-06-26T03:30:05.197Z,78.60
2019-06-26T03:32:34.498Z,78.50
2019-06-26T03:35:03.917Z,78.40
2019-06-26T03:37:33.248Z,78.00
2019-06-26T03:40:02.502Z,78.00
2019-06-26T03:42:31.758Z,77.50
2019-06-26T03:45:00.996Z,78.00
2019-06-26T03:47:30.238Z,78.70
2019-06-26T03:49:59.466Z,77.80
2019-06-26T03:52:28.732Z,77.80
2019-06-26T03:54:57.980Z,77.80
2019-06-26T03:57:27.239Z,77.60
2019-06-26T03:59:56.580Z,77.40
2019-06-26T04:02:27.645Z,78.20
2019-06-26T04:04:57.033Z,77.60
2019-06-26T04:07:26.571Z,77.80
2019-06-26T04:09:56.019Z,77.50
2019-06-26T04:12:25.378Z,78.00
2019-06-26T04:14:54.840Z,78.30
2019-06-26T04:17:24.362Z,78.00
2019-06-26T04:19:54.900Z,77.90
2019-06-26T04:22:24.298Z,78.00
2019-06-26T04:24:53.728Z,77.50
2019-06-26T04:27:23.248Z,78.20
2019-06-26T04:29:54.969Z,77.80
2019-06-26T04:32:26.701Z,77.30
2019-06-26T04:35:04.510Z,77.50
2019-06-26T04:37:34.095Z,77.60
2019-06-26T04:40:06.518Z,76.80
2019-06-26T04:42:37.418Z,77.00
2019-06-26T04:45:07.914Z,76.40
2019-06-26T04:47:39.198Z,76.40
2019-06-26T04:50:09.663Z,75.60
2019-06-26T04:52:39.115Z,75.60
2019-06-26T04:55:08.686Z,76.10
2019-06-26T04:57:43.393Z,76.10
2019-06-26T05:00:14.513Z,75.80
2019-06-26T05:02:42.310Z,75.80
2019-06-26T05:05:13.561Z,76.20
2019-06-26T05:07:45.566Z,74.60
2019-06-26T05:10:18.974Z,74.90
2019-06-26T05:12:49.528Z,74.20
2019-06-26T05:15:32.182Z,74.10
2019-06-26T05:18:03.779Z,74.30
2019-06-26T05:20:36.182Z,74.60
2019-06-26T05:23:05.684Z,73.90
2019-06-26T05:25:35.234Z,74.50
2019-06-26T05:28:08.119Z,73.10
2019-06-26T05:30:36.185Z,73.00
2019-06-26T05:33:23.574Z,71.60
2019-06-26T05:35:43.771Z,72.40
2019-06-26T05:38:16.629Z,72.10
2019-06-26T05:40:47.419Z,71.30
2019-06-26T05:43:19.001Z,70.70
2019-06-26T05:45:50.054Z,69.80
2019-06-26T05:48:21.170Z,69.50
2019-06-26T05:50:50.708Z,68.70
2019-06-26T05:53:29.051Z,67.40
2019-06-26T05:55:58.631Z,67.20
2019-06-26T05:58:28.107Z,66.60
2019-06-26T06:00:57.526Z,67.40
2019-06-26T06:03:26.903Z,66.40
2019-06-26T06:05:56.450Z,65.80
2019-06-26T06:08:25.826Z,65.70
2019-06-26T06:10:58.154Z,64.90
2019-06-26T06:13:26.213Z,64.40
2019-06-26T06:15:55.626Z,63.00
2019-06-26T06:18:25.016Z,62.50
2019-06-26T06:20:54.430Z,62.10
2019-06-26T06:23:23.816Z,60.90
2019-06-26T06:25:53.186Z,61.30
2019-06-26T06:28:22.565Z,60.40
2019-06-26T06:30:52.007Z,60.70
2019-06-26T06:33:21.355Z,59.90
2019-06-26T06:35:50.695Z,58.80
2019-06-26T06:38:20.196Z,58.70
2019-06-26T06:40:49.528Z,58.60
2019-06-26T06:43:18.995Z,58.20
2019-06-26T06:45:48.310Z,57.80
2019-06-26T06:48:17.694Z,57.50
2019-06-26T06:50:47.117Z,57.40
2019-06-26T06:53:16.520Z,56.70
2019-06-26T06:55:45.859Z,56.60
2019-06-26T06:58:15.225Z,56.40
2019-06-26T07:00:44.604Z,55.80
2019-06-26T07:03:14.038Z,55.90
2019-06-26T07:05:43.473Z,55.40
2019-06-26T07:08:12.886Z,56.20
2019-06-26T07:10:42.244Z,56.60
2019-06-26T07:13:11.630Z,55.30
2019-06-26T07:15:41.069Z,56.30
2019-06-26T07:18:10.684Z,57.50
2019-06-26T07:20:40.230Z,57.60
2019-06-26T07:23:09.558Z,57.80
2019-06-26T07:25:38.924Z,56.70
2019-06-26T07:28:08.287Z,58.00
2019-06-26T07:30:37.682Z,57.20
2019-06-26T07:33:07.122Z,59.00
2019-06-26T07:35:36.495Z,57.70
2019-06-26T07:38:05.879Z,56.60
2019-06-26T07:40:35.225Z,54.70
2019-06-26T07:43:04.601Z,54.40
2019-06-26T07:45:34.026Z,53.80
2019-06-26T07:48:04.323Z,54.90
2019-06-26T07:50:33.759Z,55.30
2019-06-26T07:53:03.552Z,54.20
2019-06-26T07:55:32.978Z,54.80
2019-06-26T07:58:13.323Z,55.10
2019-06-26T08:00:43.009Z,54.70
2019-06-26T08:03:12.616Z,54.10
2019-06-26T08:05:43.217Z,52.10
2019-06-26T08:08:14.643Z,52.70
2019-06-26T08:10:44.073Z,52.50
2019-06-26T08:13:13.596Z,52.20
2019-06-26T08:15:43.155Z,51.20
2019-06-26T08:18:12.503Z,50.80
2019-06-26T08:21:00.546Z,50.40
2019-06-26T08:23:12.953Z,50.40
2019-06-26T08:25:42.431Z,49.40
2019-06-26T08:28:11.991Z,49.50
2019-06-26T08:30:44.952Z,49.70
2019-06-26T08:33:15.041Z,49.00
2019-06-26T08:35:44.417Z,47.90
2019-06-26T08:38:15.605Z,49.00
2019-06-26T08:40:44.876Z,48.80
2019-06-26T08:46:36.864Z,48.80
2019-06-26T08:49:29.694Z,46.80
2019-06-26T08:52:29.497Z,49.30
2019-06-26T08:55:34.532Z,48.60
2019-06-26T08:58:16.188Z,47.70
2019-06-26T09:00:50.636Z,47.50
2019-06-26T09:03:24.463Z,46.90
2019-06-26T09:06:02.038Z,47.00
2019-06-26T09:08:33.648Z,46.00
2019-06-26T09:11:05.390Z,46.50
2019-06-26T09:13:35.773Z,44.60
2019-06-26T09:16:05.279Z,45.90
2019-06-26T09:18:36.155Z,45.40
2019-06-26T09:21:09.537Z,45.00
2019-06-26T09:23:42.652Z,44.80
2019-06-26T09:26:14.039Z,45.30
2019-06-26T09:28:43.544Z,45.30
2019-06-26T09:31:12.971Z,45.20
2019-06-26T09:33:42.401Z,46.00
2019-06-26T09:36:11.829Z,44.10
2019-06-26T09:38:44.748Z,44.70
2019-06-26T09:41:13.986Z,45.90
2019-06-26T09:43:43.493Z,44.30
2019-06-26T09:46:12.933Z,43.60
2019-06-26T09:48:52.858Z,42.90
2019-06-26T09:51:14.045Z,42.90
2019-06-26T09:53:47.740Z,44.10
2019-06-26T09:56:14.512Z,42.70
2019-06-26T09:58:44.101Z,41.00
2019-06-26T10:01:13.725Z,41.90
2019-06-26T10:03:45.201Z,43.80
2019-06-26T10:06:15.018Z,43.40
2019-06-26T10:08:47.658Z,42.50
2019-06-26T10:11:18.977Z,38.20
2019-06-26T10:13:48.506Z,39.00
2019-06-26T10:16:19.271Z,39.90
2019-06-26T10:18:48.785Z,40.00
2019-06-26T10:21:18.362Z,39.40
2019-06-26T10:23:48.143Z,39.70
2019-06-26T10:26:17.535Z,39.20
2019-06-26T10:28:46.967Z,38.50
2019-06-26T10:31:18.523Z,40.00
2019-06-26T10:33:47.372Z,37.80
2019-06-26T10:36:16.847Z,37.70
2019-06-26T10:38:46.269Z,36.80
2019-06-26T10:41:15.724Z,37.50
2019-06-26T10:43:45.118Z,37.20
2019-06-26T10:46:14.815Z,37.00
2019-06-26T10:48:44.267Z,36.80
2019-06-26T10:51:17.371Z,39.20
2019-06-26T10:53:46.713Z,37.30
2019-06-26T10:56:16.101Z,37.40
2019-06-26T10:58:45.555Z,37.50
2019-06-26T11:01:15.107Z,37.30
2019-06-26T11:03:44.881Z,35.60
2019-06-26T11:06:14.555Z,34.50
2019-06-26T11:08:43.887Z,34.20
2019-06-26T11:11:13.344Z,34.30
2019-06-26T11:13:42.744Z,32.70
2019-06-26T11:16:14.260Z,32.00
2019-06-26T11:18:43.674Z,31.00
2019-06-26T11:21:13.391Z,29.80
2019-06-26T11:23:42.882Z,29.80
2019-06-26T11:26:12.244Z,28.80
2019-06-26T11:28:41.681Z,29.10
2019-06-26T11:31:11.062Z,30.20
2019-06-26T11:33:40.425Z,30.50
2019-06-26T11:36:09.890Z,30.00
2019-06-26T11:38:39.306Z,31.40
2019-06-26T11:41:08.799Z,32.00
2019-06-26T11:43:38.339Z,30.50
2019-06-26T11:46:07.748Z,30.20
2019-06-26T11:48:37.192Z,29.90
2019-06-26T11:51:06.595Z,29.30
2019-06-26T11:53:36.094Z,29.50
2019-06-26T11:56:05.532Z,30.20
2019-06-26T11:58:34.932Z,30.00
2019-06-26T12:01:04.390Z,28.70
2019-06-26T12:03:33.812Z,28.80
2019-06-26T12:06:15.719Z,29.70
2019-06-26T12:08:34.645Z,29.70
2019-06-26T12:11:04.886Z,30.20
2019-06-26T12:13:34.455Z,30.70
2019-06-26T12:16:03.842Z,30.60
2019-06-26T12:18:33.337Z,30.20
2019-06-26T12:21:02.697Z,30.10
2019-06-26T12:23:32.166Z,29.90
2019-06-26T12:26:01.604Z,29.50
2019-06-26T12:28:31.017Z,29.50
2019-06-26T12:31:00.759Z,29.50
2019-06-26T12:33:30.292Z,29.90
2019-06-26T12:35:59.747Z,30.10
2019-06-26T12:38:29.145Z,30.10
2019-06-26T12:40:58.951Z,30.00
2019-06-26T12:43:28.254Z,31.40
2019-06-26T12:45:57.814Z,32.50
2019-06-26T12:48:28.882Z,34.10
2019-06-26T12:50:58.444Z,35.10
2019-06-26T12:53:29.392Z,36.20
2019-06-26T12:55:59.637Z,35.20
2019-06-26T12:58:29.105Z,34.90
2019-06-26T13:00:59.465Z,34.80
2019-06-26T13:03:28.874Z,35.30
2019-06-26T13:05:58.219Z,35.90
2019-06-26T13:08:27.684Z,36.20
2019-06-26T13:10:57.144Z,37.00
2019-06-26T13:13:26.566Z,37.20
2019-06-26T13:15:55.955Z,37.20
2019-06-26T13:18:25.586Z,37.40
2019-06-26T13:20:54.990Z,37.10
2019-06-26T13:23:24.347Z,38.00
2019-06-26T13:25:53.712Z,36.10
2019-06-26T13:28:23.138Z,38.60
2019-06-26T13:30:53.506Z,37.10
2019-06-26T13:33:23.046Z,37.90
2019-06-26T13:35:52.385Z,38.00
2019-06-26T13:38:21.774Z,38.20
2019-06-26T13:40:51.313Z,39.30
2019-06-26T13:43:20.737Z,38.40
2019-06-26T13:45:50.239Z,38.80
2019-06-26T13:48:19.654Z,38.50
2019-06-26T13:50:49.194Z,38.80
2019-06-26T13:53:21.737Z,38.80
2019-06-26T13:55:57.406Z,38.20
2019-06-26T13:58:28.613Z,38.10
2019-06-26T14:00:58.081Z,38.10
2019-06-26T14:03:27.743Z,38.80
2019-06-26T14:05:57.274Z,37.20
2019-06-26T14:08:26.669Z,38.00
2019-06-26T14:10:57.062Z,37.60
2019-06-26T14:13:26.602Z,38.20
2019-06-26T14:15:56.105Z,37.80
2019-06-26T14:18:25.493Z,38.00
2019-06-26T14:20:54.934Z,38.40
2019-06-26T14:23:25.278Z,38.20
2019-06-26T14:25:54.777Z,38.50
2019-06-26T14:28:24.226Z,38.10
2019-06-26T14:30:53.695Z,38.30
2019-06-26T14:33:23.076Z,38.50
2019-06-26T14:35:52.781Z,38.50
2019-06-26T14:38:22.512Z,38.70
2019-06-26T14:40:51.927Z,39.20
2019-06-26T14:43:21.329Z,38.30
2019-06-26T14:45:50.785Z,38.20
2019-06-26T14:48:20.263Z,38.50
2019-06-26T14:50:49.688Z,39.00
2019-06-26T14:53:19.063Z,38.60
2019-06-26T14:55:48.469Z,38.20
2019-06-26T14:58:17.936Z,38.60
2019-06-26T15:00:48.384Z,38.60
2019-06-26T15:03:17.770Z,38.70
2019-06-26T15:05:47.188Z,38.60
2019-06-26T15:08:16.790Z,39.40
2019-06-26T15:10:47.985Z,39.60
2019-06-26T15:13:17.715Z,38.70
2019-06-26T15:15:50.510Z,38.70
2019-06-26T15:18:21.027Z,38.40
2019-06-26T15:20:50.577Z,38.50
2019-06-26T15:23:19.990Z,37.90
2019-06-26T15:25:49.988Z,38.80
2019-06-26T15:28:19.402Z,39.10
2019-06-26T15:30:48.757Z,39.70
2019-06-26T15:33:20.876Z,40.00
2019-06-26T15:35:50.349Z,40.10
2019-06-26T15:38:19.802Z,39.00
2019-06-26T15:40:49.321Z,39.90
2019-06-26T15:43:18.718Z,39.80
2019-06-26T15:45:48.077Z,39.30
2019-06-26T15:48:18.046Z,39.40
2019-06-26T15:50:48.600Z,39.00
2019-06-26T15:53:18.810Z,40.00
2019-06-26T15:55:49.663Z,40.20
2019-06-26T15:58:19.239Z,40.10
2019-06-26T16:00:48.652Z,40.00
2019-06-26T16:03:19.424Z,40.00
2019-06-26T16:05:48.808Z,40.00
2019-06-26T16:08:18.252Z,40.30
2019-06-26T16:10:47.794Z,40.70
2019-06-26T16:13:18.139Z,40.90
2019-06-26T16:15:47.543Z,40.80
2019-06-26T16:18:21.609Z,40.50
2019-06-26T16:20:56.261Z,39.60
2019-06-26T16:23:28.677Z,40.50
2019-06-26T16:25:58.056Z,40.30
2019-06-26T16:28:27.574Z,40.30
2019-06-26T16:30:57.066Z,40.50
2019-06-26T16:33:26.412Z,40.60
2019-06-26T16:35:55.840Z,40.40
2019-06-26T16:38:25.320Z,40.60
2019-06-26T16:40:55.146Z,40.40
2019-06-26T16:43:24.602Z,40.60
2019-06-26T16:45:54.008Z,40.00
2019-06-26T16:48:23.433Z,40.20
2019-06-26T16:50:52.951Z,40.40
2019-06-26T16:53:24.054Z,40.20
2019-06-26T16:55:53.392Z,40.50
2019-06-26T16:58:22.797Z,40.70
2019-06-26T17:00:56.722Z,41.40
2019-06-26T17:03:29.678Z,41.00
2019-06-26T17:06:01.214Z,41.50
2019-06-26T17:08:30.631Z,40.80
2019-06-26T17:10:59.981Z,40.80
2019-06-26T17:13:29.450Z,40.70
2019-06-26T17:15:58.843Z,41.00
2019-06-26T17:18:28.219Z,41.20
2019-06-26T17:20:57.638Z,41.50
2019-06-26T17:23:27.143Z,41.40
2019-06-26T17:25:56.610Z,41.40
2019-06-26T17:28:25.961Z,41.90
2019-06-26T17:30:58.646Z,41.80
2019-06-26T17:33:29.034Z,42.80
2019-06-26T17:36:08.117Z,43.10
2019-06-26T17:38:38.060Z,42.00
2019-06-26T17:41:07.573Z,41.70
2019-06-26T17:43:38.843Z,41.90
2019-06-26T17:46:08.186Z,42.50
2019-06-26T17:48:37.589Z,44.40
2019-06-26T17:51:07.013Z,44.90
2019-06-26T17:53:36.416Z,45.30
2019-06-26T17:56:05.901Z,46.40
2019-06-26T17:58:35.249Z,46.60
2019-06-26T18:01:06.454Z,46.40
2019-06-26T18:03:36.793Z,47.10
2019-06-26T18:06:06.164Z,47.80
2019-06-26T18:08:37.211Z,48.30
2019-06-26T18:11:06.578Z,46.40
2019-06-26T18:13:35.946Z,46.80
2019-06-26T18:16:14.223Z,47.50
2019-06-26T18:18:43.522Z,48.70
2019-06-26T18:21:12.889Z,48.70
2019-06-26T18:23:42.310Z,50.30
2019-06-26T18:26:13.372Z,53.10
2019-06-26T18:28:42.587Z,57.40
2019-06-26T18:31:12.007Z,60.90
2019-06-26T18:33:44.377Z,61.70
2019-06-26T18:36:13.440Z,61.90
2019-06-26T18:38:43.723Z,62.40
2019-06-26T18:41:13.100Z,63.80
2019-06-26T18:43:42.416Z,63.10
2019-06-26T18:46:11.676Z,62.30
2019-06-26T18:48:40.994Z,61.90
2019-06-26T18:51:10.259Z,57.90
2019-06-26T18:53:52.696Z,56.30
2019-06-26T18:56:10.527Z,56.20
2019-06-26T18:58:39.805Z,55.50
2019-06-26T19:01:09.108Z,55.60
2019-06-26T19:03:38.414Z,56.70
2019-06-26T19:06:07.669Z,58.20
2019-06-26T19:08:37.000Z,57.10
2019-06-26T19:11:06.338Z,57.70
2019-06-26T19:13:36.614Z,58.10
2019-06-26T19:16:05.898Z,58.50
2019-06-26T19:18:35.954Z,58.70
2019-06-26T19:21:05.294Z,59.20
2019-06-26T19:23:35.466Z,59.30
2019-06-26T19:26:04.738Z,59.30
2019-06-26T19:28:33.976Z,58.80
2019-06-26T19:31:03.270Z,58.10
2019-06-26T19:33:35.630Z,57.40
2019-06-26T19:36:04.919Z,56.60
2019-06-26T19:38:35.359Z,55.60
2019-06-26T19:41:13.929Z,55.40
2019-06-26T19:43:43.217Z,55.40
2019-06-26T19:46:12.488Z,54.90
2019-06-26T19:48:41.843Z,54.60
2019-06-26T19:51:14.221Z,54.00
2019-06-26T19:53:43.592Z,54.60
2019-06-26T19:56:12.954Z,54.40
2019-06-26T19:58:42.306Z,54.40
2019-06-26T20:01:13.362Z,54.60
2019-06-26T20:03:42.790Z,54.50
2019-06-26T20:06:14.181Z,54.10
2019-06-26T20:08:53.350Z,54.10
2019-06-26T20:11:14.476Z,54.10
2019-06-26T20:13:43.847Z,54.00
2019-06-26T20:16:13.256Z,54.20
2019-06-26T20:18:42.633Z,54.60
2019-06-26T20:21:11.984Z,54.50
2019-06-26T20:23:41.376Z,54.60
2019-06-26T20:26:10.718Z,55.10
2019-06-26T20:28:41.983Z,55.00
2019-06-26T20:31:11.282Z,55.00
2019-06-26T20:33:46.563Z,55.10
2019-06-26T20:36:15.953Z,55.20
2019-06-26T20:38:45.316Z,55.00
2019-06-26T20:41:14.660Z,55.10
2019-06-26T20:43:45.545Z,55.10
2019-06-26T20:46:15.668Z,55.20
2019-06-26T20:48:45.216Z,55.30
2019-06-26T20:51:14.606Z,55.50
2019-06-26T20:53:43.979Z,55.60
2019-06-26T20:56:13.348Z,55.50
2019-06-26T20:58:42.626Z,55.90
2019-06-26T21:01:12.964Z,55.90
2019-06-26T21:03:42.947Z,56.20
2019-06-26T21:06:12.361Z,56.40
2019-06-26T21:08:41.738Z,56.20
2019-06-26T21:11:11.197Z,56.40
2019-06-26T21:13:41.511Z,56.50
2019-06-26T21:16:13.539Z,56.20
2019-06-26T21:18:42.771Z,56.40
2019-06-26T21:21:12.100Z,56.50
2019-06-26T21:23:41.396Z,56.60
2019-06-26T21:26:10.668Z,56.70
2019-06-26T21:28:39.917Z,56.60
2019-06-26T21:31:09.163Z,56.70
2019-06-26T21:33:39.418Z,56.90
2019-06-26T21:36:08.659Z,57.10
2019-06-26T21:38:37.918Z,57.00
2019-06-26T21:41:07.344Z,57.20
2019-06-26T21:43:36.611Z,57.20
2019-06-26T21:46:05.930Z,57.10
2019-06-26T21:48:35.249Z,57.30
2019-06-26T21:51:05.477Z,57.20
2019-06-26T21:53:34.722Z,57.40
2019-06-26T21:56:21.697Z,57.40
2019-06-26T21:59:12.383Z,57.50
2019-06-26T22:01:59.299Z,57.60
2019-06-26T22:04:46.506Z,57.80
2019-06-26T22:07:20.078Z,57.80
2019-06-26T22:10:04.679Z,58.20
2019-06-26T22:12:35.547Z,58.20
2019-06-26T22:15:05.054Z,58.20
2019-06-26T22:17:34.856Z,58.20
2019-06-26T22:20:11.314Z,58.40
2019-06-26T22:22:37.888Z,58.60
2019-06-26T22:25:07.174Z,58.90
2019-06-26T22:27:37.544Z,59.10
2019-06-26T22:30:07.893Z,59.20
2019-06-26T22:32:37.251Z,59.30
2019-06-26T22:35:06.529Z,59.40
2019-06-26T22:37:35.765Z,59.70
2019-06-26T22:40:05.139Z,59.40
2019-06-26T22:42:34.386Z,59.70
2019-06-26T22:45:04.023Z,59.60
2019-06-26T22:47:33.287Z,59.90
2019-06-26T22:50:02.903Z,60.90
2019-06-26T22:52:32.252Z,60.20
2019-06-26T22:55:01.616Z,60.50
2019-06-26T22:57:30.999Z,60.60
2019-06-26T23:00:00.379Z,60.90
2019-06-26T23:02:29.840Z,61.00
2019-06-26T23:04:59.107Z,61.30
2019-06-26T23:07:28.366Z,61.40
2019-06-26T23:09:57.683Z,61.60
2019-06-26T23:12:26.933Z,61.90
2019-06-26T23:14:56.190Z,62.10
2019-06-26T23:17:25.494Z,62.20
2019-06-26T23:19:54.781Z,62.90
2019-06-26T23:22:24.033Z,62.20
2019-06-26T23:24:53.414Z,62.60
2019-06-26T23:27:22.728Z,63.10
2019-06-26T23:29:51.980Z,63.10
2019-06-26T23:32:21.236Z,63.10
2019-06-26T23:34:50.482Z,63.30
2019-06-26T23:37:19.727Z,63.70
2019-06-26T23:39:49.021Z,63.80
2019-06-26T23:42:18.594Z,63.60
2019-06-26T23:44:47.850Z,64.10
2019-06-26T23:47:17.176Z,64.10
2019-06-26T23:49:46.419Z,64.40
2019-06-26T23:52:15.726Z,64.60
2019-06-26T23:54:53.680Z,64.70
2019-06-26T23:57:22.929Z,64.80
2019-06-26T23:59:52.177Z,65.40
